createdAt,value
2019-01-22T00:00:48.782Z,-4.12
2019-01-22T00:03:57.996Z,-4.16
2019-01-22T00:07:00.402Z,-4.22
2019-01-22T00:09:41.462Z,-4.37
2019-01-22T00:12:22.155Z,-4.41
2019-01-22T00:15:03.476Z,-4.38
2019-01-22T00:17:44.862Z,-4.38
2019-01-22T00:20:54.931Z,-4.36
2019-01-22T00:23:46.075Z,-4.37
2019-01-22T00:29:06.252Z,-4.39
2019-01-22T00:31:47.225Z,-4.37
2019-01-22T00:34:28.940Z,-4.46
2019-01-22T00:46:23.968Z,-4.39
2019-01-22T00:49:33.164Z,-4.38
2019-01-22T00:52:22.193Z,-4.33
2019-01-22T00:55:31.824Z,-4.33
2019-01-22T00:58:05.496Z,-4.36
2019-01-22T01:01:14.776Z,-4.36
2019-01-22T01:03:55.246Z,-4.35
2019-01-22T01:09:39.495Z,-4.40
2019-01-22T01:12:20.658Z,-4.44
2019-01-22T01:24:08.436Z,-4.44
2019-01-22T01:32:49.868Z,-4.54
2019-01-22T01:35:59.972Z,-4.65
2019-01-22T01:42:11.427Z,-4.86
2019-01-22T01:47:53.344Z,-4.88
2019-01-22T01:56:33.140Z,-4.89
2019-01-22T01:59:03.988Z,-4.99
2019-01-22T02:04:46.616Z,-4.98
2019-01-22T02:07:27.710Z,-4.92
2019-01-22T02:10:09.400Z,-4.89
2019-01-22T02:12:50.457Z,-4.93
2019-01-22T02:18:19.982Z,-4.92
2019-01-22T02:21:01.647Z,-4.95
2019-01-22T02:23:42.864Z,-4.96
2019-01-22T02:26:24.322Z,-4.99
2019-01-22T02:29:32.114Z,-5.00
2019-01-22T02:32:39.921Z,-4.96
2019-01-22T02:35:20.999Z,-4.96
2019-01-22T02:38:02.953Z,-4.97
2019-01-22T02:40:44.784Z,-5.00
2019-01-22T02:43:26.388Z,-5.06
2019-01-22T02:46:08.054Z,-5.08
2019-01-22T02:48:49.669Z,-5.07
2019-01-22T02:51:57.620Z,-5.11
2019-01-22T02:55:05.378Z,-5.21
2019-01-22T02:57:46.793Z,-5.26
2019-01-22T03:00:27.070Z,-5.26
2019-01-22T03:03:08.287Z,-5.33
2019-01-22T03:05:50.066Z,-5.37
2019-01-22T03:09:16.669Z,-6.03
2019-01-22T03:15:42.817Z,-5.32
2019-01-22T03:22:28.017Z,-5.36
2019-01-22T03:25:37.143Z,-5.40
2019-01-22T03:28:39.651Z,-5.46
2019-01-22T03:31:21.824Z,-5.51
2019-01-22T03:34:03.578Z,-5.61
2019-01-22T03:36:44.540Z,-5.63
2019-01-22T03:39:25.583Z,-5.64
2019-01-22T03:42:07.979Z,-5.66
2019-01-22T03:45:15.790Z,-5.64
2019-01-22T03:48:23.568Z,-5.61
2019-01-22T03:51:33.043Z,-5.60
2019-01-22T03:54:14.329Z,-5.63
2019-01-22T03:57:23.275Z,-5.63
2019-01-22T04:00:06.196Z,-5.69
2019-01-22T04:02:47.899Z,-5.69
2019-01-22T04:05:28.789Z,-5.69
2019-01-22T04:08:11.332Z,-5.69
2019-01-22T04:10:52.767Z,-5.75
2019-01-22T04:13:42.164Z,-5.78
2019-01-22T04:16:23.239Z,-5.82
2019-01-22T04:18:54.138Z,-5.90
2019-01-22T04:24:42.905Z,-6.52
2019-01-22T04:27:24.890Z,-5.86
2019-01-22T04:30:34.268Z,-5.87
2019-01-22T04:33:42.426Z,-5.89
2019-01-22T04:36:24.434Z,-5.99
2019-01-22T04:39:06.349Z,-6.07
2019-01-22T04:41:48.352Z,-6.14
2019-01-22T04:44:56.096Z,-6.15
2019-01-22T04:48:03.715Z,-6.15
2019-01-22T04:54:32.691Z,-6.04
2019-01-22T04:57:40.523Z,-6.00
2019-01-22T05:00:48.301Z,-5.92
2019-01-22T05:03:56.152Z,-5.86
2019-01-22T05:07:04.128Z,-5.86
2019-01-22T05:10:12.677Z,-5.86
2019-01-22T05:13:20.580Z,-6.54
2019-01-22T05:19:34.081Z,-5.81
2019-01-22T05:32:12.585Z,-5.68
2019-01-22T05:38:22.741Z,-5.62
2019-01-22T05:41:30.717Z,-5.59
2019-01-22T05:44:12.331Z,-5.56
2019-01-22T05:50:44.831Z,-5.54
2019-01-22T05:53:52.618Z,-5.51
2019-01-22T05:56:45.180Z,-5.51
2019-01-22T05:59:53.077Z,-5.50
2019-01-22T06:02:34.610Z,-5.52
2019-01-22T06:05:44.154Z,-5.57
2019-01-22T06:09:02.820Z,-5.57
2019-01-22T06:12:10.544Z,-5.58
2019-01-22T06:15:18.851Z,-5.61
2019-01-22T06:18:13.333Z,-5.67
2019-01-22T06:20:58.750Z,-5.72
2019-01-22T06:23:39.579Z,-5.68
2019-01-22T06:29:09.878Z,-5.66
2019-01-22T06:31:51.100Z,-5.63
2019-01-22T06:34:32.923Z,-5.63
2019-01-22T06:37:14.677Z,-5.65
2019-01-22T06:43:37.449Z,-5.70
2019-01-22T06:46:40.118Z,-5.70
2019-01-22T06:49:21.810Z,-5.73
2019-01-22T06:52:03.479Z,-5.85
2019-01-22T06:55:12.689Z,-5.85
2019-01-22T06:58:20.590Z,-5.86
2019-01-22T07:01:28.958Z,-5.86
2019-01-22T07:04:10.191Z,-5.87
2019-01-22T07:06:52.059Z,-5.83
2019-01-22T07:09:33.577Z,-6.48
2019-01-22T07:12:41.480Z,-5.84
2019-01-22T07:15:49.774Z,-5.86
2019-01-22T07:18:31.192Z,-5.90
2019-01-22T07:21:12.968Z,-5.88
2019-01-22T07:24:21.518Z,-5.79
2019-01-22T07:27:47.987Z,-5.71
2019-01-22T07:30:57.743Z,-5.63
2019-01-22T07:33:40.491Z,-5.61
2019-01-22T07:36:48.747Z,-5.65
2019-01-22T07:42:34.938Z,-5.53
2019-01-22T07:45:43.332Z,-5.48
2019-01-22T07:48:56.066Z,-5.46
2019-01-22T07:51:38.730Z,-5.47
2019-01-22T07:54:20.479Z,-5.48
2019-01-22T07:57:02.048Z,-5.49
2019-01-22T07:59:43.642Z,-5.50
2019-01-22T08:02:51.738Z,-5.56
2019-01-22T08:06:18.139Z,-5.54
2019-01-22T08:09:25.959Z,-5.44
2019-01-22T08:12:07.883Z,-5.35
2019-01-22T08:15:15.697Z,-5.28
2019-01-22T08:21:22.940Z,-5.18
2019-01-22T08:24:04.585Z,-5.14
2019-01-22T08:26:45.696Z,-5.13
2019-01-22T08:29:27.281Z,-5.07
2019-01-22T08:32:36.651Z,-5.00
2019-01-22T08:35:44.317Z,-4.94
2019-01-22T08:38:25.788Z,-4.81
2019-01-22T08:41:07.345Z,-4.71
2019-01-22T08:47:34.012Z,-4.53
2019-01-22T08:50:41.771Z,-4.41
2019-01-22T08:53:49.711Z,-4.33
2019-01-22T08:59:56.445Z,-4.12
2019-01-22T09:02:38.004Z,-4.10
2019-01-22T09:05:19.182Z,-3.88
2019-01-22T09:08:39.455Z,-3.77
2019-01-22T09:11:35.771Z,-3.65
2019-01-22T09:14:17.330Z,-3.54
2019-01-22T09:16:58.338Z,-3.45
2019-01-22T09:20:01.058Z,-3.36
2019-01-22T09:22:41.883Z,-3.23
2019-01-22T09:25:43.860Z,-3.10
2019-01-22T09:28:34.664Z,-3.01
2019-01-22T09:31:27.966Z,-2.94
2019-01-22T09:34:38.849Z,-2.89
2019-01-22T09:37:20.398Z,-2.81
2019-01-22T09:39:51.055Z,-2.66
2019-01-22T09:42:23.612Z,-2.56
2019-01-22T09:44:54.279Z,-2.47
2019-01-22T09:47:24.368Z,-2.37
2019-01-22T09:49:57.075Z,-2.29
2019-01-22T09:55:37.271Z,-2.03
2019-01-22T09:58:18.875Z,-1.94
2019-01-22T10:01:08.186Z,-1.87
2019-01-22T10:03:49.471Z,-1.74
2019-01-22T10:06:31.422Z,-1.56
2019-01-22T10:09:14.935Z,-1.45
2019-01-22T10:12:23.954Z,-1.30
2019-01-22T10:21:13.408Z,-0.88
2019-01-22T10:27:12.192Z,-0.73
2019-01-22T10:30:12.953Z,-0.65
2019-01-22T10:32:54.880Z,-0.60
2019-01-22T10:35:39.001Z,-0.50
2019-01-22T10:38:19.903Z,-0.34
2019-01-22T10:44:13.238Z,-0.20
2019-01-22T10:46:43.573Z,-0.04
2019-01-22T10:49:13.973Z,0.08
2019-01-22T10:55:20.357Z,0.19
2019-01-22T11:00:56.802Z,0.35
2019-01-22T11:03:27.341Z,0.42
2019-01-22T11:05:57.748Z,0.50
2019-01-22T11:08:27.946Z,0.57
2019-01-22T11:11:16.976Z,0.63
2019-01-22T11:14:01.248Z,0.74
2019-01-22T11:16:51.019Z,0.81
2019-01-22T11:19:54.156Z,0.89
2019-01-22T11:22:25.382Z,0.98
2019-01-22T11:24:57.446Z,0.41
2019-01-22T11:27:28.220Z,1.05
2019-01-22T11:34:04.020Z,1.25
2019-01-22T11:36:46.963Z,1.35
2019-01-22T11:42:52.320Z,1.47
2019-01-22T11:45:23.167Z,1.53
2019-01-22T11:47:53.737Z,1.49
2019-01-22T11:50:24.041Z,1.57
2019-01-22T11:52:54.797Z,1.66
2019-01-22T11:55:25.493Z,1.67
2019-01-22T11:58:00.263Z,1.75
2019-01-22T12:00:38.571Z,1.83
2019-01-22T12:03:10.201Z,1.89
2019-01-22T12:05:41.223Z,1.83
2019-01-22T12:08:11.709Z,1.76
2019-01-22T12:10:42.127Z,1.74
2019-01-22T12:13:13.867Z,1.78
2019-01-22T12:15:44.577Z,1.80
2019-01-22T12:18:15.174Z,1.89
2019-01-22T12:20:47.669Z,1.91
2019-01-22T12:23:18.409Z,2.05
2019-01-22T12:25:50.000Z,2.12
2019-01-22T12:28:20.552Z,2.25
2019-01-22T12:30:51.135Z,2.38
2019-01-22T12:33:21.449Z,2.44
2019-01-22T12:35:52.024Z,2.49
2019-01-22T12:38:22.991Z,2.51
2019-01-22T12:41:32.241Z,2.60
2019-01-22T12:44:40.132Z,2.67
2019-01-22T12:47:22.094Z,2.67
2019-01-22T12:50:03.891Z,2.72
2019-01-22T12:52:44.987Z,2.60
2019-01-22T12:55:54.570Z,2.62
2019-01-22T13:01:39.675Z,2.70
2019-01-22T13:07:03.769Z,2.80
2019-01-22T13:09:44.931Z,2.79
2019-01-22T13:12:26.903Z,2.82
2019-01-22T13:15:12.727Z,2.87
2019-01-22T13:17:53.582Z,2.89
2019-01-22T13:20:35.797Z,2.89
2019-01-22T13:23:20.146Z,2.96
2019-01-22T13:26:21.042Z,2.94
2019-01-22T13:28:51.840Z,2.88
2019-01-22T13:35:00.735Z,2.92
2019-01-22T13:37:41.592Z,2.95
2019-01-22T13:40:23.413Z,2.99
2019-01-22T13:45:54.709Z,3.01
2019-01-22T13:49:05.785Z,3.00
2019-01-22T13:51:55.090Z,3.02
2019-01-22T13:55:04.897Z,2.97
2019-01-22T13:57:36.650Z,2.88
2019-01-22T14:00:09.058Z,2.84
2019-01-22T14:02:41.285Z,2.82
2019-01-22T14:05:13.090Z,2.75
2019-01-22T14:08:22.782Z,2.70
2019-01-22T14:10:54.017Z,2.65
2019-01-22T14:13:27.726Z,2.59
2019-01-22T14:16:16.875Z,2.59
2019-01-22T14:18:58.794Z,2.55
2019-01-22T14:21:41.002Z,2.45
2019-01-22T14:24:22.078Z,2.36
2019-01-22T14:27:12.070Z,2.34
2019-01-22T14:33:24.689Z,2.24
2019-01-22T14:36:24.699Z,2.19
2019-01-22T14:42:08.470Z,2.08
2019-01-22T14:44:51.504Z,2.02
2019-01-22T14:47:33.923Z,1.98
2019-01-22T14:53:15.990Z,1.84
2019-01-22T14:56:32.334Z,1.76
2019-01-22T14:59:38.383Z,1.77
2019-01-22T15:02:50.133Z,1.64
2019-01-22T15:11:27.292Z,1.63
2019-01-22T15:20:30.853Z,1.31
2019-01-22T15:23:01.997Z,1.30
2019-01-22T15:25:33.321Z,1.17
2019-01-22T15:34:56.993Z,0.91
2019-01-22T15:37:38.933Z,0.83
2019-01-22T15:40:20.915Z,0.78
2019-01-22T15:43:10.488Z,0.76
2019-01-22T15:45:59.758Z,0.69
2019-01-22T15:48:41.753Z,0.61
2019-01-22T15:51:23.694Z,0.54
2019-01-22T15:54:07.438Z,0.48
2019-01-22T15:56:49.102Z,0.43
2019-01-22T15:59:19.874Z,0.39
2019-01-22T16:01:52.252Z,0.34
2019-01-22T16:04:27.705Z,0.24
2019-01-22T16:07:00.810Z,-0.48
2019-01-22T16:09:32.811Z,0.05
2019-01-22T16:12:04.451Z,0.03
2019-01-22T16:14:40.810Z,-0.07
2019-01-22T16:17:11.941Z,-0.19
2019-01-22T16:19:42.522Z,-0.27
2019-01-22T16:22:13.164Z,-0.96
2019-01-22T16:24:44.399Z,-0.39
2019-01-22T16:27:14.840Z,-0.50
2019-01-22T16:29:45.890Z,-0.62
2019-01-22T16:32:17.857Z,-0.69
2019-01-22T16:34:49.662Z,-0.72
2019-01-22T16:37:20.333Z,-0.76
2019-01-22T16:39:53.877Z,-0.83
2019-01-22T16:42:24.685Z,-0.88
2019-01-22T16:44:55.803Z,-0.93
2019-01-22T16:47:27.256Z,-0.99
2019-01-22T16:50:04.710Z,-1.69
2019-01-22T16:52:35.834Z,-1.13
2019-01-22T16:55:13.593Z,-1.77
2019-01-22T16:57:44.424Z,-1.28
2019-01-22T17:00:18.680Z,-1.28
2019-01-22T17:02:49.215Z,-1.32
2019-01-22T17:05:23.672Z,-1.37
2019-01-22T17:07:56.920Z,-1.37
2019-01-22T17:10:28.749Z,-1.42
2019-01-22T17:12:59.321Z,-1.48
2019-01-22T17:15:31.005Z,-1.51
2019-01-22T17:18:09.153Z,-1.51
2019-01-22T17:20:47.692Z,-1.59
2019-01-22T17:23:16.847Z,-1.65
2019-01-22T17:25:48.182Z,-1.67
2019-01-22T17:28:18.849Z,-1.65
2019-01-22T17:30:49.972Z,-1.68
2019-01-22T17:33:37.127Z,-1.69
2019-01-22T17:36:09.192Z,-1.73
2019-01-22T17:38:43.562Z,-1.78
2019-01-22T17:44:26.640Z,-1.94
2019-01-22T17:47:17.411Z,-2.01
2019-01-22T17:49:51.120Z,-1.99
2019-01-22T17:52:21.912Z,-2.03
2019-01-22T17:54:52.559Z,-2.15
2019-01-22T17:57:23.199Z,-2.48
2019-01-22T17:59:57.232Z,-2.29
2019-01-22T18:02:34.640Z,-2.35
2019-01-22T18:05:01.102Z,-2.41
2019-01-22T18:07:34.114Z,-2.44
2019-01-22T18:10:44.255Z,-2.51
2019-01-22T18:13:35.728Z,-2.47
2019-01-22T18:16:07.182Z,-2.46
2019-01-22T18:25:18.179Z,-2.53
2019-01-22T18:31:29.968Z,-2.53
2019-01-22T18:34:31.331Z,-2.58
2019-01-22T18:37:02.063Z,-2.67
2019-01-22T18:39:33.046Z,-2.71
2019-01-22T18:42:03.932Z,-2.70
2019-01-22T18:44:35.686Z,-2.69
2019-01-22T18:47:07.222Z,-2.76
2019-01-22T18:49:38.263Z,-2.77
2019-01-22T18:52:09.041Z,-2.79
2019-01-22T18:54:39.222Z,-2.81
2019-01-22T18:57:11.213Z,-2.85
2019-01-22T18:59:43.057Z,-2.85
2019-01-22T19:02:14.301Z,-2.92
2019-01-22T19:04:44.662Z,-2.95
2019-01-22T19:07:18.277Z,-2.96
2019-01-22T19:09:49.052Z,-3.01
2019-01-22T19:12:19.485Z,-3.03
2019-01-22T19:14:49.704Z,-3.01
2019-01-22T19:17:20.886Z,-2.96
2019-01-22T19:19:51.391Z,-2.94
2019-01-22T19:22:21.755Z,-2.93
2019-01-22T19:24:53.009Z,-2.93
2019-01-22T19:27:24.809Z,-2.93
2019-01-22T19:29:55.489Z,-2.94
2019-01-22T19:32:25.957Z,-2.93
2019-01-22T19:34:56.231Z,-3.61
2019-01-22T19:37:27.047Z,-3.04
2019-01-22T19:39:57.540Z,-3.03
2019-01-22T19:42:28.324Z,-3.06
2019-01-22T19:44:58.966Z,-3.09
2019-01-22T19:51:32.003Z,-3.08
2019-01-22T19:54:13.083Z,-3.11
2019-01-22T20:00:18.740Z,-3.15
2019-01-22T20:03:19.487Z,-3.55
2019-01-22T20:06:21.355Z,-3.19
2019-01-22T20:09:05.023Z,-3.25
2019-01-22T20:11:48.565Z,-3.31
2019-01-22T20:17:47.329Z,-4.32
2019-01-22T20:26:41.345Z,-3.51
2019-01-22T20:29:23.263Z,-3.53
2019-01-22T20:32:05.153Z,-3.54
2019-01-22T20:34:46.118Z,-3.54
2019-01-22T20:37:39.611Z,-3.55
2019-01-22T20:40:20.736Z,-3.57
2019-01-22T20:43:01.824Z,-3.63
2019-01-22T20:45:43.613Z,-3.67
2019-01-22T20:48:25.324Z,-3.68
2019-01-22T20:51:06.334Z,-3.68
2019-01-22T20:53:55.615Z,-3.67
2019-01-22T20:56:36.926Z,-3.70
2019-01-22T20:59:38.331Z,-5.92
2019-01-22T21:02:19.692Z,-3.72
2019-01-22T21:05:20.523Z,-3.73
2019-01-22T21:08:01.528Z,-3.75
2019-01-22T21:11:03.464Z,-3.77
2019-01-22T21:16:37.012Z,-3.84
2019-01-22T21:19:07.930Z,-3.88
2019-01-22T21:21:38.419Z,-3.92
2019-01-22T21:24:09.017Z,-3.92
2019-01-22T21:26:40.052Z,-3.92
2019-01-22T21:29:11.934Z,-3.94
2019-01-22T21:31:42.484Z,-3.95
2019-01-22T21:34:12.812Z,-3.98
2019-01-22T21:36:43.058Z,-3.99
2019-01-22T21:39:17.208Z,-4.01
2019-01-22T21:42:26.389Z,-4.03
2019-01-22T21:44:57.145Z,-4.03
2019-01-22T21:51:18.977Z,-4.10
2019-01-22T21:54:00.445Z,-4.10
2019-01-22T21:56:42.003Z,-4.11
2019-01-22T21:59:26.498Z,-4.12
2019-01-22T22:01:56.789Z,-4.15
2019-01-22T22:11:01.729Z,-4.22
2019-01-22T22:13:42.971Z,-4.24
2019-01-22T22:16:25.908Z,-4.56
2019-01-22T22:19:06.958Z,-4.32
2019-01-22T22:21:47.904Z,-4.33
2019-01-22T22:27:31.769Z,-4.37
2019-01-22T22:30:13.487Z,-4.40
2019-01-22T22:32:54.564Z,-4.44
2019-01-22T22:35:43.732Z,-4.44
2019-01-22T22:38:32.917Z,-4.47
2019-01-22T22:41:21.984Z,-4.49
2019-01-22T22:44:12.036Z,-4.49
2019-01-22T22:47:22.064Z,-4.53
2019-01-22T22:50:23.487Z,-4.56
2019-01-22T22:53:24.014Z,-4.55
2019-01-22T22:56:05.863Z,-4.59
2019-01-22T23:02:16.591Z,-4.70
2019-01-22T23:11:19.216Z,-4.80
2019-01-22T23:14:00.597Z,-4.77
2019-01-22T23:19:47.507Z,-4.79
2019-01-22T23:22:56.554Z,-4.87
2019-01-22T23:28:55.361Z,-4.91
2019-01-22T23:34:44.657Z,-5.01
2019-01-22T23:37:26.312Z,-5.05
2019-01-22T23:40:15.508Z,-5.09
2019-01-22T23:43:23.672Z,-5.13
2019-01-22T23:46:06.628Z,-5.16
2019-01-22T23:49:07.417Z,-5.28
2019-01-22T23:52:08.864Z,-5.34
2019-01-22T23:54:50.488Z,-5.40
2019-01-22T23:57:32.359Z,-5.37
